Time;durP1;ratioP1;P1;durP2;ratioP2;P2;SDS_P1;SDS_P2;PMS_P1;PMS_P2;Temp;Humidity;BMP_temperature;BMP_pressure;BME280_temperature;BME280_humidity;BME280_pressure;Samples;Min_cycle;Max_cycle;Signal;HPM_P1;HPM_P2
2023/07/26 00:01:37;;;;;;;4.22;1.88;;;;;;;;;;5061989;28;20092;-89
2023/07/26 00:04:07;;;;;;;6.00;2.30;;;;;;;;;;5064949;28;20080;-88
2023/07/26 00:06:34;;;;;;;6.07;2.10;;;;;;;;;;5068622;28;20056;-89
2023/07/26 00:09:00;;;;;;;7.38;2.00;;;;;;;;;;5071458;28;20067;-89
2023/07/26 00:18:14;;;;;;;4.47;1.98;;;;;;;;;;5062213;28;20055;-89
2023/07/26 00:20:41;;;;;;;6.50;2.17;;;;;;;;;;5059598;28;20113;-89
2023/07/26 00:23:08;;;;;;;8.30;2.42;;;;;;;;;;5059998;28;20072;-89
2023/07/26 00:25:34;;;;;;;9.23;2.40;;;;;;;;;;5062620;28;20063;-89
2023/07/26 00:28:14;;;;;;;4.88;1.80;;;;;;;;;;5061469;28;20053;-89
2023/07/26 00:30:41;;;;;;;7.10;2.72;;;;;;;;;;5063290;28;20298;-89
2023/07/26 00:33:16;;;;;;;6.53;2.28;;;;;;;;;;5061492;28;20107;-89
2023/07/26 00:35:43;;;;;;;5.75;2.65;;;;;;;;;;5061771;28;20049;-89
2023/07/26 00:38:10;;;;;;;7.15;2.55;;;;;;;;;;5062624;28;20425;-89
2023/07/26 00:40:40;;;;;;;7.55;2.35;;;;;;;;;;5062363;28;20049;-89
2023/07/26 00:43:07;;;;;;;3.70;2.20;;;;;;;;;;5061860;28;20072;-89
2023/07/26 00:45:38;;;;;;;8.30;2.50;;;;;;;;;;5061274;28;20113;-89
2023/07/26 00:48:05;;;;;;;6.50;2.22;;;;;;;;;;5063160;28;20065;-89
2023/07/26 00:50:32;;;;;;;7.50;2.22;;;;;;;;;;5062923;28;20393;-89
2023/07/26 00:52:59;;;;;;;10.52;2.53;;;;;;;;;;5060131;28;20051;-89
2023/07/26 00:55:34;;;;;;;5.07;2.17;;;;;;;;;;5061358;28;20053;-89
2023/07/26 00:58:01;;;;;;;5.83;2.37;;;;;;;;;;5062080;28;20107;-89
2023/07/26 01:00:28;;;;;;;8.75;2.40;;;;;;;;;;5068230;28;20047;-89
2023/07/26 01:02:54;;;;;;;3.05;2.15;;;;;;;;;;5064081;28;20057;-89
2023/07/26 01:05:22;;;;;;;7.90;2.40;;;;;;;;;;5062720;28;20630;-89
2023/07/26 01:08:01;;;;;;;4.82;2.40;;;;;;;;;;5064235;28;20045;-89
2023/07/26 01:10:31;;;;;;;2.58;1.83;;;;;;;;;;5062619;28;20049;-89
2023/07/26 01:13:12;;;;;;;11.57;3.03;;;;;;;;;;5062670;28;20045;-89
2023/07/26 01:15:41;;;;;;;6.85;2.00;;;;;;;;;;5065711;28;20049;-89
2023/07/26 01:18:08;;;;;;;6.75;2.03;;;;;;;;;;5063630;28;20084;-89
2023/07/26 01:20:35;;;;;;;5.25;1.88;;;;;;;;;;5064988;28;20091;-89
2023/07/26 01:23:02;;;;;;;4.72;1.83;;;;;;;;;;5065009;28;20045;-89
2023/07/26 01:25:29;;;;;;;5.97;2.33;;;;;;;;;;5066837;28;20045;-89
2023/07/26 01:27:56;;;;;;;9.95;1.80;;;;;;;;;;5065425;28;20055;-89
2023/07/26 01:30:23;;;;;;;6.72;1.83;;;;;;;;;;5066652;28;20144;-89
2023/07/26 01:32:51;;;;;;;3.28;1.70;;;;;;;;;;5065317;28;20045;-89
2023/07/26 01:35:35;;;;;;;5.40;2.33;;;;;;;;;;5065852;28;20045;-89
2023/07/26 01:38:02;;;;;;;7.90;1.98;;;;;;;;;;5065957;28;20111;-89
2023/07/26 01:40:28;;;;;;;7.05;2.38;;;;;;;;;;5065295;28;20467;-88
2023/07/26 01:42:56;;;;;;;4.47;2.05;;;;;;;;;;5065630;28;20200;-88
2023/07/26 01:45:23;;;;;;;3.90;1.70;;;;;;;;;;5064154;28;20063;-88
2023/07/26 01:47:50;;;;;;;7.97;2.13;;;;;;;;;;5063510;28;20044;-88
2023/07/26 01:50:20;;;;;;;6.53;2.35;;;;;;;;;;5064777;28;20049;-88
2023/07/26 01:52:47;;;;;;;3.92;2.00;;;;;;;;;;5065974;28;20099;-89
2023/07/26 01:55:16;;;;;;;6.38;1.85;;;;;;;;;;5065525;28;20329;-89
2023/07/26 01:57:46;;;;;;;6.18;1.90;;;;;;;;;;5066239;28;20063;-89
2023/07/26 02:00:13;;;;;;;5.65;2.22;;;;;;;;;;5066193;28;20075;-89
2023/07/26 02:02:46;;;;;;;9.57;2.05;;;;;;;;;;5065308;28;20156;-89
2023/07/26 02:05:22;;;;;;;4.18;2.00;;;;;;;;;;5064797;28;20053;-89
2023/07/26 02:07:48;;;;;;;5.82;1.75;;;;;;;;;;5066124;28;20049;-90
2023/07/26 02:10:15;;;;;;;5.45;2.05;;;;;;;;;;5066492;28;20056;-90
2023/07/26 02:12:42;;;;;;;4.20;1.88;;;;;;;;;;5065355;28;20049;-89
2023/07/26 02:15:12;;;;;;;5.65;1.88;;;;;;;;;;5065082;28;20053;-89
2023/07/26 02:17:39;;;;;;;7.15;1.98;;;;;;;;;;5069677;28;20047;-90
2023/07/26 02:20:06;;;;;;;4.43;2.28;;;;;;;;;;5062595;28;20060;-89
2023/07/26 02:22:33;;;;;;;3.50;2.22;;;;;;;;;;5064211;28;20059;-89
2023/07/26 02:25:00;;;;;;;9.18;1.90;;;;;;;;;;5067715;28;20096;-89
2023/07/26 02:27:26;;;;;;;4.32;2.08;;;;;;;;;;5064439;28;20068;-89
2023/07/26 02:29:53;;;;;;;8.98;2.67;;;;;;;;;;5064355;28;20045;-89
2023/07/26 02:32:20;;;;;;;8.32;2.05;;;;;;;;;;5063962;28;20065;-90
2023/07/26 02:34:49;;;;;;;7.32;2.08;;;;;;;;;;5064805;28;20053;-89
2023/07/26 02:37:16;;;;;;;4.90;2.00;;;;;;;;;;5066021;28;20490;-89
2023/07/26 02:39:43;;;;;;;4.13;1.80;;;;;;;;;;5063551;28;20170;-89
2023/07/26 02:42:09;;;;;;;5.60;1.95;;;;;;;;;;5064160;28;20109;-89
2023/07/26 02:44:36;;;;;;;11.65;2.25;;;;;;;;;;5072990;28;20140;-89
2023/07/26 02:47:03;;;;;;;7.88;2.20;;;;;;;;;;5067409;28;20147;-89
2023/07/26 03:02:53;;;;;;;5.53;2.38;;;;;;;;;;5065133;28;20084;-89
2023/07/26 03:05:20;;;;;;;7.93;2.30;;;;;;;;;;5064462;28;20475;-89
2023/07/26 03:07:49;;;;;;;6.53;2.47;;;;;;;;;;5064213;28;20055;-90
2023/07/26 03:10:17;;;;;;;6.03;2.42;;;;;;;;;;5064713;28;20048;-90
2023/07/26 03:12:43;;;;;;;6.88;2.65;;;;;;;;;;5065171;28;20053;-90
2023/07/26 03:15:11;;;;;;;9.00;2.80;;;;;;;;;;5063111;28;20056;-89
2023/07/26 03:17:41;;;;;;;5.82;2.58;;;;;;;;;;5064249;28;20060;-89
2023/07/26 03:20:10;;;;;;;6.75;2.28;;;;;;;;;;5061691;28;20061;-89
2023/07/26 03:22:37;;;;;;;8.40;2.60;;;;;;;;;;5061002;28;20113;-89
2023/07/26 03:25:10;;;;;;;4.45;2.30;;;;;;;;;;5067767;28;20120;-89
2023/07/26 03:27:37;;;;;;;6.03;2.30;;;;;;;;;;5068649;28;20328;-89
2023/07/26 03:30:07;;;;;;;7.80;2.28;;;;;;;;;;5067099;28;20061;-89
2023/07/26 03:32:49;;;;;;;8.23;2.28;;;;;;;;;;5076840;28;20048;-90
2023/07/26 03:35:29;;;;;;;7.18;2.28;;;;;;;;;;5077883;28;20080;-88
2023/07/26 03:38:11;;;;;;;7.85;2.58;;;;;;;;;;5286960;22;20045;-90
2023/07/26 03:40:55;;;;;;;9.25;3.22;;;;;;;;;;5042403;28;20057;-88
2023/07/26 03:43:46;;;;;;;6.43;2.78;;;;;;;;;;5057385;28;20025;-89
2023/07/26 03:46:27;;;;;;;5.85;2.35;;;;;;;;;;5057468;28;20033;-89
2023/07/26 03:49:07;;;;;;;4.70;2.30;;;;;;;;;;5042032;28;20135;-90
2023/07/26 03:52:08;;;;;;;5.38;2.58;;;;;;;;;;5042729;28;20063;-88
2023/07/26 03:54:48;;;;;;;8.07;2.90;;;;;;;;;;5151430;22;20016;-89
2023/07/26 03:57:24;;;;;;;5.47;2.20;;;;;;;;;;5061600;28;20076;-89
2023/07/26 04:00:24;;;;;;;7.05;3.03;;;;;;;;;;5061896;28;20049;-88
2023/07/26 04:03:07;;;;;;;5.15;2.92;;;;;;;;;;5067041;28;20092;-88
2023/07/26 04:05:51;;;;;;;5.97;2.15;;;;;;;;;;5060387;28;20104;-89
2023/07/26 04:08:33;;;;;;;6.47;2.92;;;;;;;;;;5077537;28;20072;-89
2023/07/26 04:11:08;;;;;;;6.43;2.78;;;;;;;;;;5061570;28;20055;-88
2023/07/26 04:13:50;;;;;;;6.05;2.97;;;;;;;;;;5061745;28;20053;-90
2023/07/26 04:16:30;;;;;;;4.07;2.40;;;;;;;;;;5061548;28;20088;-89
2023/07/26 04:19:12;;;;;;;6.10;3.20;;;;;;;;;;5062024;28;20021;-88
2023/07/26 04:21:55;;;;;;;12.43;3.08;;;;;;;;;;5062781;28;20044;-88
2023/07/26 04:24:41;;;;;;;5.97;2.75;;;;;;;;;;5077383;28;20033;-90
2023/07/26 04:27:25;;;;;;;7.43;2.38;;;;;;;;;;5062081;28;20025;-87
2023/07/26 04:30:14;;;;;;;5.45;2.10;;;;;;;;;;5075877;28;20040;-87
2023/07/26 04:35:37;;;;;;;6.80;2.45;;;;;;;;;;5778156;22;20056;-88
2023/07/26 04:38:19;;;;;;;7.97;2.55;;;;;;;;;;5061816;28;20028;-89
2023/07/26 04:41:03;;;;;;;7.55;2.50;;;;;;;;;;5060953;28;20053;-89
2023/07/26 04:43:44;;;;;;;4.25;2.13;;;;;;;;;;5090628;22;20108;-88
2023/07/26 04:46:26;;;;;;;6.40;2.65;;;;;;;;;;5058633;28;20085;-88
2023/07/26 04:49:07;;;;;;;8.43;2.50;;;;;;;;;;5063017;28;20041;-89
2023/07/26 04:54:43;;;;;;;4.30;1.90;;;;;;;;;;4509414;26;20057;-90
2023/07/26 04:57:24;;;;;;;4.40;2.15;;;;;;;;;;5041976;28;20025;-90
2023/07/26 05:00:14;;;;;;;5.07;2.17;;;;;;;;;;5043062;28;20060;-88
2023/07/26 05:02:58;;;;;;;7.50;2.65;;;;;;;;;;5044220;28;20060;-89
2023/07/26 05:05:48;;;;;;;3.97;2.10;;;;;;;;;;5043444;28;20033;-89
2023/07/26 05:08:33;;;;;;;4.55;2.20;;;;;;;;;;5043668;28;20034;-90
2023/07/26 05:11:20;;;;;;;8.15;2.60;;;;;;;;;;5057987;28;20068;-89
2023/07/26 05:14:21;;;;;;;6.60;2.45;;;;;;;;;;5043975;28;20128;-89
2023/07/26 05:17:05;;;;;;;18.42;3.03;;;;;;;;;;5058707;28;20033;-90
2023/07/26 05:20:00;;;;;;;10.25;2.67;;;;;;;;;;5058391;28;20069;-89
2023/07/26 05:22:45;;;;;;;7.68;2.58;;;;;;;;;;4529861;23;15176970;-89
2023/07/26 05:25:26;;;;;;;5.85;2.63;;;;;;;;;;5059081;28;20081;-87
2023/07/26 05:31:32;;;;;;;4.93;2.55;;;;;;;;;;5336530;22;20045;-90
2023/07/26 05:34:15;;;;;;;4.38;2.70;;;;;;;;;;5078576;28;20096;-89
2023/07/26 05:36:59;;;;;;;6.90;3.05;;;;;;;;;;5064011;28;20143;-90
2023/07/26 05:39:43;;;;;;;7.70;3.10;;;;;;;;;;5064652;28;20050;-87
2023/07/26 05:43:04;;;;;;;5.97;2.45;;;;;;;;;;5079193;28;20040;-87
2023/07/26 05:48:20;;;;;;;9.32;2.72;;;;;;;;;;5144420;22;20041;-88
2023/07/26 05:53:41;;;;;;;6.20;3.08;;;;;;;;;;5081122;22;20053;-88
2023/07/26 05:59:10;;;;;;;6.22;2.55;;;;;;;;;;5134908;22;20410;-90
2023/07/26 06:01:53;;;;;;;5.25;2.50;;;;;;;;;;5077472;28;20150;-91
2023/07/26 06:15:08;;;;;;;8.45;2.55;;;;;;;;;;5208911;22;20032;-89
2023/07/26 06:17:52;;;;;;;8.35;2.33;;;;;;;;;;5078464;28;20044;-90
2023/07/26 06:21:15;;;;;;;5.05;2.60;;;;;;;;;;5078412;28;20025;-90
2023/07/26 06:24:07;;;;;;;6.57;3.05;;;;;;;;;;5092170;22;20056;-90
2023/07/26 06:29:38;;;;;;;9.20;2.50;;;;;;;;;;5405929;22;20105;-90
2023/07/26 06:32:19;;;;;;;5.55;2.40;;;;;;;;;;5234685;22;20049;-90
2023/07/26 06:35:05;;;;;;;5.28;2.72;;;;;;;;;;5038438;28;20081;-91
2023/07/26 06:37:59;;;;;;;2.58;1.90;;;;;;;;;;5022972;28;20065;-90
2023/07/26 06:40:42;;;;;;;7.97;2.10;;;;;;;;;;5023367;28;20089;-90
2023/07/26 06:50:02;;;;;;;6.28;1.80;;;;;;;;;;5960665;23;20049;-90
2023/07/26 06:58:24;;;;;;;8.13;2.40;;;;;;;;;;5581411;22;19933;-91
2023/07/26 07:01:15;;;;;;;7.88;2.42;;;;;;;;;;5075756;28;20053;-90
2023/07/26 07:04:30;;;;;;;3.45;1.48;;;;;;;;;;5076926;28;20033;-90
2023/07/26 07:07:11;;;;;;;5.18;1.63;;;;;;;;;;5078341;28;20060;-90
2023/07/26 07:10:26;;;;;;;5.47;1.42;;;;;;;;;;5078171;28;20043;-89
2023/07/26 07:13:07;;;;;;;2.40;1.10;;;;;;;;;;5076992;28;20029;-90
2023/07/26 07:16:10;;;;;;;5.63;1.50;;;;;;;;;;5234998;22;20057;-90
2023/07/26 07:18:56;;;;;;;6.13;1.52;;;;;;;;;;5062317;28;20037;-90
2023/07/26 07:35:33;;;;;;;4.85;1.30;;;;;;;;;;5191381;22;20045;-91
2023/07/26 07:38:16;;;;;;;4.63;1.30;;;;;;;;;;5061671;28;20036;-90
2023/07/26 07:41:52;;;;;;;3.80;1.23;;;;;;;;;;5076637;28;20033;-89
2023/07/26 07:44:37;;;;;;;3.05;1.05;;;;;;;;;;5105277;22;20040;-90
2023/07/26 07:47:21;;;;;;;2.33;0.98;;;;;;;;;;5061565;28;20040;-90
2023/07/26 07:50:24;;;;;;;3.83;1.20;;;;;;;;;;5060638;28;20096;-89
2023/07/26 07:53:11;;;;;;;3.10;1.30;;;;;;;;;;5194107;22;20036;-90
2023/07/26 07:55:53;;;;;;;2.38;0.82;;;;;;;;;;5074930;28;20051;-89
2023/07/26 07:59:04;;;;;;;2.20;0.82;;;;;;;;;;5060760;28;20084;-90
2023/07/26 08:01:52;;;;;;;5.85;1.23;;;;;;;;;;5060752;28;20040;-91
2023/07/26 08:05:03;;;;;;;5.03;1.20;;;;;;;;;;5125419;22;20041;-93
2023/07/26 08:10:26;;;;;;;2.45;0.90;;;;;;;;;;5075870;28;20044;-92
2023/07/26 08:13:15;;;;;;;2.17;1.15;;;;;;;;;;5520488;22;20028;-89
2023/07/26 08:18:55;;;;;;;4.45;1.20;;;;;;;;;;5352649;22;20429;-89
2023/07/26 08:21:39;;;;;;;2.85;1.25;;;;;;;;;;5060517;28;20029;-90
2023/07/26 08:24:43;;;;;;;1.50;1.10;;;;;;;;;;5059460;28;20064;-90
2023/07/26 08:30:01;;;;;;;2.75;1.30;;;;;;;;;;5440649;22;20060;-90
2023/07/26 08:33:04;;;;;;;3.13;0.98;;;;;;;;;;5071569;28;20043;-91
2023/07/26 08:48:39;;;;;;;2.90;1.00;;;;;;;;;;5073260;28;20190;-90
2023/07/26 09:02:10;;;;;;;1.90;1.10;;;;;;;;;;5196986;22;20060;-90
2023/07/26 09:15:47;;;;;;;2.17;1.10;;;;;;;;;;3953454;22;20049;-90
2023/07/26 09:18:30;;;;;;;3.42;1.20;;;;;;;;;;5059454;28;20033;-90
2023/07/26 09:24:16;;;;;;;2.78;1.42;;;;;;;;;;5714981;22;20060;-89
2023/07/26 09:29:59;;;;;;;1.63;0.98;;;;;;;;;;5154152;22;20053;-91
2023/07/26 09:32:45;;;;;;;1.63;1.02;;;;;;;;;;5059901;28;20043;-91
2023/07/26 09:35:27;;;;;;;1.95;1.08;;;;;;;;;;5061459;28;20032;-90
2023/07/26 09:38:19;;;;;;;1.33;0.70;;;;;;;;;;5064044;28;20024;-91
2023/07/26 09:41:28;;;;;;;1.30;0.70;;;;;;;;;;5077416;28;20033;-91
2023/07/26 09:46:53;;;;;;;1.17;0.60;;;;;;;;;;5651372;22;20094;-91
2023/07/26 09:52:15;;;;;;;1.98;0.70;;;;;;;;;;5320934;22;20059;-89
2023/07/26 09:57:30;;;;;;;1.33;0.70;;;;;;;;;;5056744;28;20060;-89
2023/07/26 10:00:11;;;;;;;2.53;0.70;;;;;;;;;;5042988;28;20029;-89
2023/07/26 10:03:12;;;;;;;0.95;0.68;;;;;;;;;;5029051;28;20049;-90
2023/07/26 10:05:54;;;;;;;1.35;0.90;;;;;;;;;;5058742;28;20085;-89
2023/07/26 10:16:46;;;;;;;1.63;0.80;;;;;;;;;;5190989;22;20057;-90
2023/07/26 10:19:37;;;;;;;2.58;0.88;;;;;;;;;;5069766;28;20067;-90
2023/07/26 10:22:29;;;;;;;1.67;0.82;;;;;;;;;;5072659;28;20037;-90
2023/07/26 10:25:15;;;;;;;1.45;0.80;;;;;;;;;;5076158;28;20068;-89
2023/07/26 10:34:20;;;;;;;1.50;1.13;;;;;;;;;;5435974;22;20057;-91
2023/07/26 10:37:23;;;;;;;1.33;0.90;;;;;;;;;;5056656;28;20061;-89
2023/07/26 10:48:54;;;;;;;0.98;0.50;;;;;;;;;;5440484;22;20044;-90
2023/07/26 10:51:51;;;;;;;3.08;0.75;;;;;;;;;;5056850;28;20105;-90
2023/07/26 11:08:42;;;;;;;1.30;0.77;;;;;;;;;;5651395;22;19936;-90
2023/07/26 11:14:16;;;;;;;1.48;0.80;;;;;;;;;;5392015;22;20077;-90
2023/07/26 11:17:02;;;;;;;1.10;0.70;;;;;;;;;;5076661;28;20054;-92
2023/07/26 11:31:25;;;;;;;2.13;0.88;;;;;;;;;;5584056;22;20414;-89
2023/07/26 11:58:51;;;;;;;2.70;0.60;;;;;;;;;;3090442;22;20288;31
2023/07/26 12:01:39;;;;;;;0.95;0.50;;;;;;;;;;5193138;22;20063;-90
2023/07/26 12:09:35;;;;;;;0.60;0.40;;;;;;;;;;5214284;22;20044;-91
2023/07/26 12:31:40;;;;;;;0.70;0.50;;;;;;;;;;4801004;22;20579;-92
2023/07/26 12:34:31;;;;;;;1.17;0.63;;;;;;;;;;5038649;28;20109;-89
2023/07/26 12:37:31;;;;;;;2.97;0.90;;;;;;;;;;5054543;28;20104;-91
2023/07/26 12:40:16;;;;;;;1.13;0.60;;;;;;;;;;5040416;28;20036;-91
2023/07/26 12:42:59;;;;;;;0.93;0.50;;;;;;;;;;5039621;28;20067;-90
2023/07/26 12:46:10;;;;;;;2.40;0.52;;;;;;;;;;5046564;28;20040;-88
2023/07/26 12:48:55;;;;;;;1.05;0.60;;;;;;;;;;5054884;28;20049;-89
2023/07/26 12:51:38;;;;;;;2.35;0.70;;;;;;;;;;5054301;28;20037;-90
2023/07/26 12:56:58;;;;;;;1.55;0.68;;;;;;;;;;5677940;22;20055;-90
2023/07/26 12:59:46;;;;;;;1.63;0.50;;;;;;;;;;5072699;28;20033;-90
2023/07/26 13:05:33;;;;;;;0.87;0.63;;;;;;;;;;5074400;28;20033;-89
2023/07/26 13:08:22;;;;;;;2.05;0.85;;;;;;;;;;5059470;28;20439;-90
2023/07/26 13:11:08;;;;;;;0.90;0.60;;;;;;;;;;5060418;28;20099;-89
2023/07/26 13:13:53;;;;;;;0.88;0.50;;;;;;;;;;5078443;28;20041;-90
2023/07/26 13:16:35;;;;;;;2.50;0.60;;;;;;;;;;5076882;28;20041;-91
2023/07/26 13:19:24;;;;;;;3.45;1.00;;;;;;;;;;5076688;28;20025;-91
2023/07/26 13:22:22;;;;;;;1.38;0.70;;;;;;;;;;5077178;28;20029;-91
2023/07/26 13:25:09;;;;;;;0.80;0.70;;;;;;;;;;5077303;28;20024;-90
2023/07/26 13:27:55;;;;;;;1.65;0.88;;;;;;;;;;5062733;28;20094;-88
2023/07/26 13:30:44;;;;;;;1.17;0.90;;;;;;;;;;5438639;22;20100;-90
2023/07/26 13:36:23;;;;;;;4.03;1.13;;;;;;;;;;6188261;22;20037;-88
2023/07/26 13:39:07;;;;;;;3.45;0.73;;;;;;;;;;5056820;28;20055;-89
2023/07/26 13:41:49;;;;;;;3.88;0.93;;;;;;;;;;5231302;22;20072;-89
2023/07/26 13:44:37;;;;;;;3.60;1.13;;;;;;;;;;5079724;22;20049;-89
2023/07/26 13:47:20;;;;;;;4.22;0.93;;;;;;;;;;5043121;28;20133;-90
2023/07/26 13:50:28;;;;;;;2.20;1.07;;;;;;;;;;585602;26;20365;-89
2023/07/26 13:53:10;;;;;;;2.05;1.00;;;;;;;;;;5077302;28;20487;-89
2023/07/26 13:56:25;;;;;;;1.58;1.05;;;;;;;;;;5077002;28;20041;-90
2023/07/26 13:59:15;;;;;;;2.55;1.20;;;;;;;;;;5078811;28;20028;-91
2023/07/26 14:02:18;;;;;;;2.05;1.10;;;;;;;;;;5078717;28;20050;-91
2023/07/26 14:05:01;;;;;;;2.75;1.08;;;;;;;;;;5077402;28;20033;-89
2023/07/26 14:07:42;;;;;;;2.53;1.63;;;;;;;;;;5075705;28;20044;-89
2023/07/26 14:10:29;;;;;;;1.90;1.23;;;;;;;;;;5134368;22;20049;-91
2023/07/26 14:16:13;;;;;;;1.58;0.88;;;;;;;;;;4917914;26;20100;-89
2023/07/26 14:19:00;;;;;;;2.38;1.30;;;;;;;;;;5078228;28;20021;-90
2023/07/26 14:24:43;;;;;;;2.17;1.10;;;;;;;;;;5321301;22;20053;-90
2023/07/26 14:27:47;;;;;;;1.45;0.90;;;;;;;;;;5065277;28;20033;-89
2023/07/26 14:35:51;;;;;;;2.45;1.08;;;;;;;;;;5750664;22;20033;-90
2023/07/26 14:38:37;;;;;;;2.33;1.48;;;;;;;;;;5057209;28;20041;-89
2023/07/26 14:41:57;;;;;;;2.70;1.20;;;;;;;;;;5054786;28;20045;-90
2023/07/26 14:45:16;;;;;;;1.63;1.02;;;;;;;;;;5057337;28;20038;-88
2023/07/26 14:47:59;;;;;;;2.15;0.88;;;;;;;;;;5055081;28;20044;-91
2023/07/26 14:50:49;;;;;;;1.45;1.05;;;;;;;;;;5056581;28;20068;-89
2023/07/26 14:53:42;;;;;;;2.42;1.13;;;;;;;;;;5056290;28;20038;-88
2023/07/26 14:56:53;;;;;;;1.10;0.90;;;;;;;;;;5235928;22;20067;-89
2023/07/26 14:59:44;;;;;;;1.33;0.75;;;;;;;;;;5068060;22;20068;-88
2023/07/26 15:02:59;;;;;;;0.80;0.60;;;;;;;;;;5056967;28;20038;-90
2023/07/26 15:13:31;;;;;;;0.90;0.60;;;;;;;;;;5312761;22;20061;-90
2023/07/26 15:16:30;;;;;;;1.17;0.40;;;;;;;;;;5154139;22;20041;-91
2023/07/26 15:32:17;;;;;;;0.80;0.38;;;;;;;;;;5571880;22;20112;-89
2023/07/26 15:35:20;;;;;;;0.80;0.65;;;;;;;;;;5075774;28;20130;-88
2023/07/26 15:38:16;;;;;;;1.23;0.60;;;;;;;;;;5060717;28;20044;-88
2023/07/26 15:53:55;;;;;;;0.83;0.60;;;;;;;;;;5463099;22;20049;-90
2023/07/26 15:56:51;;;;;;;1.40;0.95;;;;;;;;;;5060699;28;20044;-89
2023/07/26 15:59:32;;;;;;;0.70;0.40;;;;;;;;;;5059691;28;20044;-90
2023/07/26 16:02:16;;;;;;;0.80;0.40;;;;;;;;;;5058343;28;20029;-89
2023/07/26 16:11:47;;;;;;;1.17;0.52;;;;;;;;;;5035464;28;20040;-90
2023/07/26 16:24:51;;;;;;;1.90;0.80;;;;;;;;;;5917868;22;20051;-90
2023/07/26 16:27:39;;;;;;;2.25;0.90;;;;;;;;;;5076607;28;20039;-90
2023/07/26 16:31:12;;;;;;;0.82;0.47;;;;;;;;;;5474394;22;20037;-91
2023/07/26 16:34:05;;;;;;;1.52;0.60;;;;;;;;;;5178318;22;20579;-91
2023/07/26 16:39:43;;;;;;;1.15;0.50;;;;;;;;;;6159742;22;20067;-90
2023/07/26 16:42:30;;;;;;;0.47;0.47;;;;;;;;;;5155149;22;20051;-89
2023/07/26 16:45:11;;;;;;;0.70;0.50;;;;;;;;;;5072752;28;20060;-89
2023/07/26 16:48:00;;;;;;;3.13;0.63;;;;;;;;;;5076493;28;20054;-90
2023/07/26 16:56:02;;;;;;;1.08;0.60;;;;;;;;;;5138968;22;19947;-89
2023/07/26 16:58:49;;;;;;;1.65;1.00;;;;;;;;;;5073969;28;20029;-92
2023/07/26 17:07:34;;;;;;;1.27;0.70;;;;;;;;;;5075022;28;20033;-90
2023/07/26 17:15:54;;;;;;;1.48;0.65;;;;;;;;;;5643737;22;20066;-88
2023/07/26 17:18:36;;;;;;;2.70;0.73;;;;;;;;;;5075317;28;20072;-90
2023/07/26 17:24:44;;;;;;;3.22;0.80;;;;;;;;;;5088063;22;20060;-88
2023/07/26 17:27:26;;;;;;;3.42;0.93;;;;;;;;;;5059867;28;20101;-90
2023/07/26 17:30:13;;;;;;;2.33;0.88;;;;;;;;;;5060178;28;20041;-90
2023/07/26 17:32:56;;;;;;;1.17;0.90;;;;;;;;;;5075287;28;20025;-90
2023/07/26 17:35:46;;;;;;;2.40;0.90;;;;;;;;;;5075305;28;20044;-90
2023/07/26 17:39:08;;;;;;;3.25;1.00;;;;;;;;;;5059844;28;20021;-90
2023/07/26 17:44:29;;;;;;;2.83;0.70;;;;;;;;;;5082798;22;20041;-89
2023/07/26 17:56:10;;;;;;;6.72;1.80;;;;;;;;;;5481775;22;20041;-92
2023/07/26 18:07:58;;;;;;;3.78;1.40;;;;;;;;;;5576741;22;20101;-90
2023/07/26 18:22:51;;;;;;;2.13;1.10;;;;;;;;;;5820417;22;20112;-89
2023/07/26 18:36:11;;;;;;;2.70;1.17;;;;;;;;;;5546238;22;20053;-90
2023/07/26 18:42:42;;;;;;;4.28;1.30;;;;;;;;;;5056581;28;20029;-91
2023/07/26 18:45:26;;;;;;;2.78;1.42;;;;;;;;;;5058287;28;20073;-89
2023/07/26 18:48:27;;;;;;;2.08;1.23;;;;;;;;;;5058643;28;20036;-88
2023/07/26 18:51:21;;;;;;;6.72;1.17;;;;;;;;;;5057515;28;20033;-88
2023/07/26 18:54:06;;;;;;;2.33;1.20;;;;;;;;;;5057176;28;20041;-90
2023/07/26 18:57:11;;;;;;;3.15;1.10;;;;;;;;;;5059402;28;20039;-88
2023/07/26 18:59:54;;;;;;;1.77;1.08;;;;;;;;;;5057004;28;20087;-91
2023/07/26 19:02:42;;;;;;;1.98;1.58;;;;;;;;;;5055623;28;20025;-91
2023/07/26 19:05:44;;;;;;;2.63;1.30;;;;;;;;;;5054329;28;20033;-90
2023/07/26 19:08:27;;;;;;;1.85;1.27;;;;;;;;;;5057024;28;20037;-89
2023/07/26 19:11:18;;;;;;;2.08;1.10;;;;;;;;;;5127613;22;20169;-91
2023/07/26 19:14:02;;;;;;;1.85;1.10;;;;;;;;;;5154787;22;20102;-90
2023/07/26 19:16:43;;;;;;;1.20;0.85;;;;;;;;;;5077762;28;20123;-89
2023/07/26 19:19:25;;;;;;;6.53;1.50;;;;;;;;;;5077399;28;20035;-90
2023/07/26 19:22:05;;;;;;;6.60;1.40;;;;;;;;;;5075600;28;20028;-89
2023/07/26 19:24:47;;;;;;;2.38;1.10;;;;;;;;;;5077766;28;20056;-90
2023/07/26 19:32:38;;;;;;;5.75;1.60;;;;;;;;;;4902039;26;20043;-89
2023/07/26 19:35:31;;;;;;;3.70;1.52;;;;;;;;;;5076886;28;20063;-89
2023/07/26 19:45:21;;;;;;;2.22;1.20;;;;;;;;;;5077554;28;20131;-90
2023/07/26 19:48:06;;;;;;;3.70;1.30;;;;;;;;;;5148859;22;20067;-91
2023/07/26 19:50:54;;;;;;;3.55;1.50;;;;;;;;;;5054851;28;20033;-90
2023/07/26 19:56:41;;;;;;;3.40;1.70;;;;;;;;;;5057880;28;19912;-89
2023/07/26 19:59:23;;;;;;;4.90;1.23;;;;;;;;;;5056888;28;20093;-91
2023/07/26 20:02:05;;;;;;;1.75;1.20;;;;;;;;;;5042226;28;20040;-91
2023/07/26 20:04:50;;;;;;;2.38;1.15;;;;;;;;;;5028050;28;20048;-90
2023/07/26 20:07:34;;;;;;;3.33;1.27;;;;;;;;;;5041668;28;20026;-88
2023/07/26 20:10:34;;;;;;;2.85;1.20;;;;;;;;;;5042169;28;20018;-88
2023/07/26 20:13:20;;;;;;;2.97;1.40;;;;;;;;;;5056643;28;20033;-89
2023/07/26 20:16:03;;;;;;;2.83;1.23;;;;;;;;;;5041772;28;20037;-91
2023/07/26 20:18:45;;;;;;;3.85;1.80;;;;;;;;;;5040666;28;20102;-90
2023/07/26 20:24:51;;;;;;;3.88;1.52;;;;;;;;;;5057428;28;20051;-89
2023/07/26 20:30:08;;;;;;;4.25;1.38;;;;;;;;;;5131604;22;20045;-89
2023/07/26 20:32:50;;;;;;;5.00;1.67;;;;;;;;;;5075971;28;20055;-87
2023/07/26 20:35:52;;;;;;;2.55;1.50;;;;;;;;;;5075758;28;20088;-89
2023/07/26 20:38:33;;;;;;;5.60;1.70;;;;;;;;;;5064434;28;20084;-89
2023/07/26 20:41:02;;;;;;;5.00;1.70;;;;;;;;;;5054903;28;20052;-89
2023/07/26 20:43:29;;;;;;;2.83;1.77;;;;;;;;;;5054299;28;20057;-89
2023/07/26 20:45:56;;;;;;;3.88;1.42;;;;;;;;;;5057051;28;20049;-89
2023/07/26 20:48:24;;;;;;;4.45;1.70;;;;;;;;;;5055713;28;20092;-89
2023/07/26 20:50:52;;;;;;;4.05;1.88;;;;;;;;;;5053507;28;20313;-89
2023/07/26 20:53:22;;;;;;;2.83;1.27;;;;;;;;;;5051888;28;20415;-89
2023/07/26 20:56:08;;;;;;;2.72;1.55;;;;;;;;;;5055645;28;20115;-89
2023/07/26 20:58:34;;;;;;;3.28;1.92;;;;;;;;;;5053970;28;20057;-89
2023/07/26 21:01:03;;;;;;;3.55;1.80;;;;;;;;;;5057358;28;20257;-89
2023/07/26 21:03:30;;;;;;;5.15;1.83;;;;;;;;;;5055122;28;20053;-89
2023/07/26 21:05:57;;;;;;;5.65;1.90;;;;;;;;;;5055230;28;20130;-89
2023/07/26 21:08:24;;;;;;;3.42;1.63;;;;;;;;;;5056962;28;20045;-89
2023/07/26 21:10:51;;;;;;;2.85;1.58;;;;;;;;;;5057209;28;20290;-90
2023/07/26 21:13:21;;;;;;;3.15;1.80;;;;;;;;;;5054932;28;20064;-89
2023/07/26 21:15:54;;;;;;;3.20;2.60;;;;;;;;;;5059458;28;20158;-89
2023/07/26 21:18:22;;;;;;;5.82;2.00;;;;;;;;;;5065499;28;20084;-89
2023/07/26 21:20:49;;;;;;;2.78;2.00;;;;;;;;;;5057082;28;20091;-89
2023/07/26 21:23:20;;;;;;;6.13;2.80;;;;;;;;;;5054911;28;20345;-89
2023/07/26 21:25:50;;;;;;;3.22;2.40;;;;;;;;;;5057877;28;20095;-89
2023/07/26 21:28:18;;;;;;;4.07;1.60;;;;;;;;;;5055194;28;20068;-89
2023/07/26 21:30:46;;;;;;;4.13;2.00;;;;;;;;;;5060303;28;20049;-89
2023/07/26 21:33:14;;;;;;;2.75;1.88;;;;;;;;;;5060001;28;20087;-89
2023/07/26 21:35:43;;;;;;;3.45;1.88;;;;;;;;;;5060134;28;20456;-89
2023/07/26 21:38:10;;;;;;;4.95;2.33;;;;;;;;;;5058592;28;20063;-88
2023/07/26 21:40:37;;;;;;;9.55;1.83;;;;;;;;;;5059303;28;20228;-89
2023/07/26 21:43:05;;;;;;;6.70;2.22;;;;;;;;;;5060014;28;20140;-89
2023/07/26 21:45:34;;;;;;;5.30;2.72;;;;;;;;;;5059082;28;20137;-89
2023/07/26 21:48:08;;;;;;;4.10;2.17;;;;;;;;;;5059300;28;20049;-89
2023/07/26 21:50:45;;;;;;;2.42;1.90;;;;;;;;;;5059188;28;20076;-89
2023/07/26 21:53:14;;;;;;;4.32;1.80;;;;;;;;;;5059870;28;20128;-89
2023/07/26 21:55:41;;;;;;;4.78;2.20;;;;;;;;;;5063721;28;20060;-89
2023/07/26 21:58:08;;;;;;;7.85;2.08;;;;;;;;;;5060410;28;20413;-88
2023/07/26 22:00:42;;;;;;;2.65;2.03;;;;;;;;;;5059703;28;20077;-88
2023/07/26 22:03:11;;;;;;;6.47;2.28;;;;;;;;;;5059209;28;20049;-88
2023/07/26 22:05:38;;;;;;;5.70;2.10;;;;;;;;;;5061113;28;20045;-88
2023/07/26 22:08:08;;;;;;;4.85;2.05;;;;;;;;;;5061029;28;20052;-88
2023/07/26 22:10:35;;;;;;;3.90;2.42;;;;;;;;;;5059477;28;20164;-88
2023/07/26 22:13:02;;;;;;;6.72;3.00;;;;;;;;;;5061303;28;20330;-88
2023/07/26 22:15:28;;;;;;;8.48;2.70;;;;;;;;;;5062747;28;20056;-89
2023/07/26 22:17:55;;;;;;;3.65;2.13;;;;;;;;;;5060874;28;20071;-88
2023/07/26 22:20:23;;;;;;;4.13;2.58;;;;;;;;;;5057896;28;20106;-88
2023/07/26 22:22:52;;;;;;;5.55;3.08;;;;;;;;;;5059970;28;20103;-88
2023/07/26 22:25:19;;;;;;;6.60;2.95;;;;;;;;;;5060722;28;20259;-88
2023/07/26 22:27:48;;;;;;;3.88;2.67;;;;;;;;;;5062377;28;20128;-88
2023/07/26 22:30:15;;;;;;;10.65;2.58;;;;;;;;;;5059566;28;20048;-88
2023/07/26 22:32:45;;;;;;;7.68;3.17;;;;;;;;;;5059198;28;20056;-88
2023/07/26 22:35:12;;;;;;;8.38;3.33;;;;;;;;;;5059288;28;20049;-88
2023/07/26 22:37:39;;;;;;;8.07;3.47;;;;;;;;;;5059068;28;20156;-88
2023/07/26 22:40:06;;;;;;;11.82;3.50;;;;;;;;;;5057470;28;20065;-88
2023/07/26 22:42:32;;;;;;;6.38;3.08;;;;;;;;;;5057904;28;20065;-88
2023/07/26 22:44:59;;;;;;;9.13;3.33;;;;;;;;;;5058296;28;20148;-88